首页
METAR-TAF:

METAR-TAF

机场 :

韦斯卡, 西班牙

纬度: 42-04-32N, 经度: 0-18-58W, 海拔: 539米

当前天气观测

该预报发布于14分钟前的19:00 UTC
风速10节,风向西
温度 7°C
湿度 61%
气压 1030 hPa
能见度10公里或以上
1500米以下无云,无积雨云

METAR: LEHC 181900Z AUTO 27010KT CAVOK 07/00 Q1030

时间: 20:14 (19:14 UTC)

预报

该预报发布于5小时和14分钟前的14:00 UTC
预报有效从18日的 15点(UTC)到 19日的 15点(UTC)
风速6节,风向西转西南
能见度10公里或以上
少量云层高于4000英尺
成为
从 18日的 15点(UTC)到 18日的 16点(UTC)
风速12节,风向西
短暂存在
从 18日的 15点(UTC)到 18日的 18点(UTC)
风速15节,风向西,有时为25节阵风
成为
从 19日的 03点(UTC)到 19日的 05点(UTC)
风速3节,风向多变
成为
从 19日的 13点(UTC)到 19日的 15点(UTC)
风速10节,风向西

TAF: LEHC 181400Z 1815/1915 24006KT 9999 FEW040 TX14/1912Z TN00/1906Z BECMG 1815/1816 27012KT TEMPO 1815/1818 27015G25KT BECMG 1903/1905 VRB03KT BECMG 1913/1915 27010KT

超过4000个机场的气象观测和天气预报(METAR&TAF报告)。

可查询的气象台以黄色和红色小点在地图上表示。

将鼠标移到小点上方,可查看气象台名称。

然后点击查看天气观测和预报。

如需切换地图:点击带黑十字的绿色按钮放大地图;点击带横线的绿色按钮缩小地图;或者点击绿色箭头查看邻近地区的地图。


METAR-TAF: